sensor_id;sensor_type;location;lat;lon;timestamp;temperature;humidity
21612;DHT22;47005;52.292;13.452;2022-10-16T00:01:09;14.40;99.90
21612;DHT22;47005;52.292;13.452;2022-10-16T00:03:36;14.40;99.90
21612;DHT22;47005;52.292;13.452;2022-10-16T00:06:02;14.40;99.90
21612;DHT22;47005;52.292;13.452;2022-10-16T00:08:28;14.40;99.90
21612;DHT22;47005;52.292;13.452;2022-10-16T00:11:06;14.40;99.90
21612;DHT22;47005;52.292;13.452;2022-10-16T00:13:33;14.40;99.90
21612;DHT22;47005;52.292;13.452;2022-10-16T00:16:00;14.40;99.90
21612;DHT22;47005;52.292;13.452;2022-10-16T00:18:27;14.40;99.90
21612;DHT22;47005;52.292;13.452;2022-10-16T00:20:53;14.40;99.90
21612;DHT22;47005;52.292;13.452;2022-10-16T00:23:19;14.40;99.90
21612;DHT22;47005;52.292;13.452;2022-10-16T00:25:45;14.40;99.90
21612;DHT22;47005;52.292;13.452;2022-10-16T00:28:19;14.40;99.90
21612;DHT22;47005;52.292;13.452;2022-10-16T00:30:44;14.40;99.90
21612;DHT22;47005;52.292;13.452;2022-10-16T00:33:10;14.40;99.90
21612;DHT22;47005;52.292;13.452;2022-10-16T00:35:35;14.40;99.90
21612;DHT22;47005;52.292;13.452;2022-10-16T00:38:01;14.40;99.90
21612;DHT22;47005;52.292;13.452;2022-10-16T00:40:26;14.40;99.90
21612;DHT22;47005;52.292;13.452;2022-10-16T00:42:53;14.30;99.90
21612;DHT22;47005;52.292;13.452;2022-10-16T00:45:19;14.40;99.90
21612;DHT22;47005;52.292;13.452;2022-10-16T00:47:45;14.40;99.90
21612;DHT22;47005;52.292;13.452;2022-10-16T00:50:31;14.40;99.90
21612;DHT22;47005;52.292;13.452;2022-10-16T00:52:59;14.40;99.90
21612;DHT22;47005;52.292;13.452;2022-10-16T00:55:25;14.40;99.90
21612;DHT22;47005;52.292;13.452;2022-10-16T00:57:52;14.40;99.90
21612;DHT22;47005;52.292;13.452;2022-10-16T01:00:21;14.40;99.90
21612;DHT22;47005;52.292;13.452;2022-10-16T01:02:56;14.40;99.90
21612;DHT22;47005;52.292;13.452;2022-10-16T01:05:23;14.40;99.90
21612;DHT22;47005;52.292;13.452;2022-10-16T01:08:13;14.40;99.90
21612;DHT22;47005;52.292;13.452;2022-10-16T01:10:52;14.40;99.90
21612;DHT22;47005;52.292;13.452;2022-10-16T01:13:37;14.40;99.90
21612;DHT22;47005;52.292;13.452;2022-10-16T01:16:15;14.40;99.90
21612;DHT22;47005;52.292;13.452;2022-10-16T01:18:49;14.40;99.90
21612;DHT22;47005;52.292;13.452;2022-10-16T01:21:36;14.40;99.90
21612;DHT22;47005;52.292;13.452;2022-10-16T01:29:33;14.40;99.90
21612;DHT22;47005;52.292;13.452;2022-10-16T01:32:05;14.40;99.90
21612;DHT22;47005;52.292;13.452;2022-10-16T01:34:37;14.40;99.90
21612;DHT22;47005;52.292;13.452;2022-10-16T01:37:11;14.40;99.90
21612;DHT22;47005;52.292;13.452;2022-10-16T01:39:39;14.40;99.90
21612;DHT22;47005;52.292;13.452;2022-10-16T01:42:27;14.40;99.90
21612;DHT22;47005;52.292;13.452;2022-10-16T01:44:56;14.40;99.90
21612;DHT22;47005;52.292;13.452;2022-10-16T01:47:24;14.40;99.90
21612;DHT22;47005;52.292;13.452;2022-10-16T01:49:51;14.40;99.90
21612;DHT22;47005;52.292;13.452;2022-10-16T01:52:22;14.40;99.90
21612;DHT22;47005;52.292;13.452;2022-10-16T01:54:52;14.40;99.90
21612;DHT22;47005;52.292;13.452;2022-10-16T01:57:20;14.40;99.90
21612;DHT22;47005;52.292;13.452;2022-10-16T01:59:50;14.40;99.90
21612;DHT22;47005;52.292;13.452;2022-10-16T02:02:19;14.40;99.90
21612;DHT22;47005;52.292;13.452;2022-10-16T02:04:48;14.40;99.90
21612;DHT22;47005;52.292;13.452;2022-10-16T02:07:17;14.40;99.90
21612;DHT22;47005;52.292;13.452;2022-10-16T02:09:43;14.40;99.90
21612;DHT22;47005;52.292;13.452;2022-10-16T02:12:16;14.40;99.90
21612;DHT22;47005;52.292;13.452;2022-10-16T02:14:44;14.40;99.90
21612;DHT22;47005;52.292;13.452;2022-10-16T02:17:12;14.40;99.90
21612;DHT22;47005;52.292;13.452;2022-10-16T02:19:38;14.50;99.90
21612;DHT22;47005;52.292;13.452;2022-10-16T02:22:04;14.40;99.90
21612;DHT22;47005;52.292;13.452;2022-10-16T02:29:53;14.50;99.90
21612;DHT22;47005;52.292;13.452;2022-10-16T02:32:24;14.50;99.90
21612;DHT22;47005;52.292;13.452;2022-10-16T02:34:53;14.50;99.90
21612;DHT22;47005;52.292;13.452;2022-10-16T02:37:19;14.50;99.90
21612;DHT22;47005;52.292;13.452;2022-10-16T02:39:45;14.50;99.90
21612;DHT22;47005;52.292;13.452;2022-10-16T02:42:14;14.60;99.90
21612;DHT22;47005;52.292;13.452;2022-10-16T02:44:40;14.60;99.90
21612;DHT22;47005;52.292;13.452;2022-10-16T02:47:06;14.60;99.90
21612;DHT22;47005;52.292;13.452;2022-10-16T02:49:31;14.60;99.90
21612;DHT22;47005;52.292;13.452;2022-10-16T02:51:57;14.60;99.90
21612;DHT22;47005;52.292;13.452;2022-10-16T02:54:22;14.60;99.90
21612;DHT22;47005;52.292;13.452;2022-10-16T02:56:49;14.60;99.90
21612;DHT22;47005;52.292;13.452;2022-10-16T02:59:15;14.60;99.90
21612;DHT22;47005;52.292;13.452;2022-10-16T03:01:40;14.60;99.90
21612;DHT22;47005;52.292;13.452;2022-10-16T03:04:06;14.60;99.90
21612;DHT22;47005;52.292;13.452;2022-10-16T03:06:32;14.60;99.90
21612;DHT22;47005;52.292;13.452;2022-10-16T03:08:57;14.60;99.90
21612;DHT22;47005;52.292;13.452;2022-10-16T03:11:23;14.60;99.90
21612;DHT22;47005;52.292;13.452;2022-10-16T03:13:48;14.60;99.90
21612;DHT22;47005;52.292;13.452;2022-10-16T03:16:14;14.70;99.90
21612;DHT22;47005;52.292;13.452;2022-10-16T03:18:39;14.70;99.90
21612;DHT22;47005;52.292;13.452;2022-10-16T03:21:05;14.60;99.90
21612;DHT22;47005;52.292;13.452;2022-10-16T03:23:31;14.60;99.90
21612;DHT22;47005;52.292;13.452;2022-10-16T03:25:56;14.70;99.90
21612;DHT22;47005;52.292;13.452;2022-10-16T03:28:22;14.60;99.90
21612;DHT22;47005;52.292;13.452;2022-10-16T03:30:47;14.60;99.90
21612;DHT22;47005;52.292;13.452;2022-10-16T03:33:13;14.60;99.90
21612;DHT22;47005;52.292;13.452;2022-10-16T03:35:38;14.60;99.90
21612;DHT22;47005;52.292;13.452;2022-10-16T03:38:04;14.60;99.90
21612;DHT22;47005;52.292;13.452;2022-10-16T03:40:29;14.60;99.90
21612;DHT22;47005;52.292;13.452;2022-10-16T03:42:57;14.60;99.90
21612;DHT22;47005;52.292;13.452;2022-10-16T03:45:23;14.60;99.90
21612;DHT22;47005;52.292;13.452;2022-10-16T03:47:49;14.60;99.90
21612;DHT22;47005;52.292;13.452;2022-10-16T03:50:15;14.60;99.90
21612;DHT22;47005;52.292;13.452;2022-10-16T03:52:40;14.60;99.90
21612;DHT22;47005;52.292;13.452;2022-10-16T03:55:06;14.60;99.90
21612;DHT22;47005;52.292;13.452;2022-10-16T03:57:32;14.60;99.90
21612;DHT22;47005;52.292;13.452;2022-10-16T03:59:57;14.60;99.90
21612;DHT22;47005;52.292;13.452;2022-10-16T04:02:23;14.60;99.90
21612;DHT22;47005;52.292;13.452;2022-10-16T04:04:49;14.60;99.90
21612;DHT22;47005;52.292;13.452;2022-10-16T04:07:14;14.60;99.90
21612;DHT22;47005;52.292;13.452;2022-10-16T04:09:40;14.60;99.90
21612;DHT22;47005;52.292;13.452;2022-10-16T04:12:05;14.60;99.90
21612;DHT22;47005;52.292;13.452;2022-10-16T04:14:31;14.50;99.90
21612;DHT22;47005;52.292;13.452;2022-10-16T04:16:56;14.50;99.90
21612;DHT22;47005;52.292;13.452;2022-10-16T04:19:22;14.50;99.90
21612;DHT22;47005;52.292;13.452;2022-10-16T04:21:47;14.50;99.90
21612;DHT22;47005;52.292;13.452;2022-10-16T04:24:13;14.60;99.90
21612;DHT22;47005;52.292;13.452;2022-10-16T04:26:39;14.50;99.90
21612;DHT22;47005;52.292;13.452;2022-10-16T04:29:04;14.60;99.90
21612;DHT22;47005;52.292;13.452;2022-10-16T04:31:31;14.50;99.90
21612;DHT22;47005;52.292;13.452;2022-10-16T04:33:57;14.60;99.90
21612;DHT22;47005;52.292;13.452;2022-10-16T04:36:22;14.50;99.90
21612;DHT22;47005;52.292;13.452;2022-10-16T04:38:48;14.60;99.90
21612;DHT22;47005;52.292;13.452;2022-10-16T04:41:13;14.60;99.90
21612;DHT22;47005;52.292;13.452;2022-10-16T04:43:39;14.60;99.90
21612;DHT22;47005;52.292;13.452;2022-10-16T04:46:04;14.50;99.90
21612;DHT22;47005;52.292;13.452;2022-10-16T04:48:31;14.50;99.90
21612;DHT22;47005;52.292;13.452;2022-10-16T04:50:56;14.60;99.90
21612;DHT22;47005;52.292;13.452;2022-10-16T04:53:22;14.50;99.90
21612;DHT22;47005;52.292;13.452;2022-10-16T04:55:48;14.50;99.90
21612;DHT22;47005;52.292;13.452;2022-10-16T04:58:14;14.50;99.90
21612;DHT22;47005;52.292;13.452;2022-10-16T05:00:40;14.50;99.90
21612;DHT22;47005;52.292;13.452;2022-10-16T05:03:05;14.50;99.90
21612;DHT22;47005;52.292;13.452;2022-10-16T05:05:34;14.50;99.90
21612;DHT22;47005;52.292;13.452;2022-10-16T05:08:00;14.50;99.90
21612;DHT22;47005;52.292;13.452;2022-10-16T05:10:25;14.50;99.90
21612;DHT22;47005;52.292;13.452;2022-10-16T05:12:51;14.50;99.90
21612;DHT22;47005;52.292;13.452;2022-10-16T05:15:17;14.50;99.90
21612;DHT22;47005;52.292;13.452;2022-10-16T05:17:43;14.50;99.90
21612;DHT22;47005;52.292;13.452;2022-10-16T05:20:08;14.50;99.90
21612;DHT22;47005;52.292;13.452;2022-10-16T05:22:34;14.50;99.90
21612;DHT22;47005;52.292;13.452;2022-10-16T05:24:59;14.50;99.90
21612;DHT22;47005;52.292;13.452;2022-10-16T05:27:25;14.50;99.90
21612;DHT22;47005;52.292;13.452;2022-10-16T05:29:50;14.40;99.90
21612;DHT22;47005;52.292;13.452;2022-10-16T05:32:17;14.50;99.90
21612;DHT22;47005;52.292;13.452;2022-10-16T05:34:43;14.50;99.90
21612;DHT22;47005;52.292;13.452;2022-10-16T05:37:10;14.50;99.90
21612;DHT22;47005;52.292;13.452;2022-10-16T05:39:37;14.50;99.90
21612;DHT22;47005;52.292;13.452;2022-10-16T05:42:03;14.50;99.90
21612;DHT22;47005;52.292;13.452;2022-10-16T05:44:29;14.40;99.90
21612;DHT22;47005;52.292;13.452;2022-10-16T05:46:54;14.40;99.90
21612;DHT22;47005;52.292;13.452;2022-10-16T05:49:20;14.40;99.90
21612;DHT22;47005;52.292;13.452;2022-10-16T05:51:45;14.40;99.90
21612;DHT22;47005;52.292;13.452;2022-10-16T05:54:11;14.40;99.90
21612;DHT22;47005;52.292;13.452;2022-10-16T05:56:37;14.40;99.90
21612;DHT22;47005;52.292;13.452;2022-10-16T05:59:05;14.40;99.90
21612;DHT22;47005;52.292;13.452;2022-10-16T06:01:31;14.40;99.90
21612;DHT22;47005;52.292;13.452;2022-10-16T06:03:57;14.40;99.90
21612;DHT22;47005;52.292;13.452;2022-10-16T06:06:25;14.40;99.90
21612;DHT22;47005;52.292;13.452;2022-10-16T06:08:52;14.40;99.90
21612;DHT22;47005;52.292;13.452;2022-10-16T06:11:26;14.40;99.90
21612;DHT22;47005;52.292;13.452;2022-10-16T06:13:53;14.40;99.90
21612;DHT22;47005;52.292;13.452;2022-10-16T06:16:19;14.50;99.90
21612;DHT22;47005;52.292;13.452;2022-10-16T06:18:45;14.40;99.90
21612;DHT22;47005;52.292;13.452;2022-10-16T06:21:18;14.40;99.90
21612;DHT22;47005;52.292;13.452;2022-10-16T06:23:44;14.40;99.90
21612;DHT22;47005;52.292;13.452;2022-10-16T06:26:13;14.40;99.90
21612;DHT22;47005;52.292;13.452;2022-10-16T06:28:40;14.40;99.90
21612;DHT22;47005;52.292;13.452;2022-10-16T06:31:07;14.40;99.90
21612;DHT22;47005;52.292;13.452;2022-10-16T06:33:33;14.40;99.90
21612;DHT22;47005;52.292;13.452;2022-10-16T06:36:10;14.50;99.90
21612;DHT22;47005;52.292;13.452;2022-10-16T06:38:36;14.50;99.90
21612;DHT22;47005;52.292;13.452;2022-10-16T06:41:02;14.50;99.90
21612;DHT22;47005;52.292;13.452;2022-10-16T06:43:29;14.50;99.90
21612;DHT22;47005;52.292;13.452;2022-10-16T06:46:01;14.50;99.90
21612;DHT22;47005;52.292;13.452;2022-10-16T06:48:28;14.50;99.90
21612;DHT22;47005;52.292;13.452;2022-10-16T06:53:27;14.60;99.90
21612;DHT22;47005;52.292;13.452;2022-10-16T06:55:53;14.60;99.90
21612;DHT22;47005;52.292;13.452;2022-10-16T06:58:18;14.60;99.90
21612;DHT22;47005;52.292;13.452;2022-10-16T07:00:44;14.60;99.90
21612;DHT22;47005;52.292;13.452;2022-10-16T07:03:09;14.60;99.90
21612;DHT22;47005;52.292;13.452;2022-10-16T07:05:42;14.70;99.90
21612;DHT22;47005;52.292;13.452;2022-10-16T07:08:08;14.70;99.90
21612;DHT22;47005;52.292;13.452;2022-10-16T07:10:34;14.70;99.90
21612;DHT22;47005;52.292;13.452;2022-10-16T07:13:00;14.70;99.90
21612;DHT22;47005;52.292;13.452;2022-10-16T07:15:26;14.70;99.90
21612;DHT22;47005;52.292;13.452;2022-10-16T07:17:52;14.70;99.90
21612;DHT22;47005;52.292;13.452;2022-10-16T07:20:18;14.80;99.90
21612;DHT22;47005;52.292;13.452;2022-10-16T07:22:44;14.80;99.90
21612;DHT22;47005;52.292;13.452;2022-10-16T07:25:10;14.80;99.90
21612;DHT22;47005;52.292;13.452;2022-10-16T07:27:36;14.80;99.90
21612;DHT22;47005;52.292;13.452;2022-10-16T07:30:02;14.90;99.90
21612;DHT22;47005;52.292;13.452;2022-10-16T07:32:28;14.90;99.90
21612;DHT22;47005;52.292;13.452;2022-10-16T07:34:53;14.90;99.90
21612;DHT22;47005;52.292;13.452;2022-10-16T07:37:21;15.00;99.90
21612;DHT22;47005;52.292;13.452;2022-10-16T07:39:46;15.00;99.90
21612;DHT22;47005;52.292;13.452;2022-10-16T07:42:12;15.10;99.90
21612;DHT22;47005;52.292;13.452;2022-10-16T07:44:38;15.10;99.90
21612;DHT22;47005;52.292;13.452;2022-10-16T07:47:07;15.20;99.90
21612;DHT22;47005;52.292;13.452;2022-10-16T07:49:32;15.20;99.90
21612;DHT22;47005;52.292;13.452;2022-10-16T07:51:58;15.20;99.90
21612;DHT22;47005;52.292;13.452;2022-10-16T07:54:23;15.30;99.90
21612;DHT22;47005;52.292;13.452;2022-10-16T07:56:49;15.30;99.90
21612;DHT22;47005;52.292;13.452;2022-10-16T07:59:14;15.40;99.90
21612;DHT22;47005;52.292;13.452;2022-10-16T08:01:40;15.40;99.90
21612;DHT22;47005;52.292;13.452;2022-10-16T08:04:08;15.40;99.90
21612;DHT22;47005;52.292;13.452;2022-10-16T08:06:39;15.50;99.90
21612;DHT22;47005;52.292;13.452;2022-10-16T08:09:06;15.50;99.90
21612;DHT22;47005;52.292;13.452;2022-10-16T08:11:32;15.50;99.90
21612;DHT22;47005;52.292;13.452;2022-10-16T08:13:58;15.50;99.90
21612;DHT22;47005;52.292;13.452;2022-10-16T08:16:24;15.60;99.90
21612;DHT22;47005;52.292;13.452;2022-10-16T08:18:50;15.60;99.90
21612;DHT22;47005;52.292;13.452;2022-10-16T08:21:18;15.60;99.90
21612;DHT22;47005;52.292;13.452;2022-10-16T08:23:45;15.70;99.90
21612;DHT22;47005;52.292;13.452;2022-10-16T08:26:11;15.70;99.90
21612;DHT22;47005;52.292;13.452;2022-10-16T08:28:37;15.70;99.90
21612;DHT22;47005;52.292;13.452;2022-10-16T08:31:12;15.70;99.90
21612;DHT22;47005;52.292;13.452;2022-10-16T08:33:40;15.70;99.90
21612;DHT22;47005;52.292;13.452;2022-10-16T08:36:06;15.80;99.90
21612;DHT22;47005;52.292;13.452;2022-10-16T08:38:32;15.80;99.90
21612;DHT22;47005;52.292;13.452;2022-10-16T08:44:31;15.90;99.90
21612;DHT22;47005;52.292;13.452;2022-10-16T08:47:20;15.90;99.90
21612;DHT22;47005;52.292;13.452;2022-10-16T08:50:00;15.90;99.90
21612;DHT22;47005;52.292;13.452;2022-10-16T08:52:32;16.00;99.90
21612;DHT22;47005;52.292;13.452;2022-10-16T08:54:59;16.00;99.90
21612;DHT22;47005;52.292;13.452;2022-10-16T08:57:25;16.10;99.90
21612;DHT22;47005;52.292;13.452;2022-10-16T08:59:55;16.10;99.90
21612;DHT22;47005;52.292;13.452;2022-10-16T09:13:19;16.20;99.90
21612;DHT22;47005;52.292;13.452;2022-10-16T09:19:01;16.30;99.90
21612;DHT22;47005;52.292;13.452;2022-10-16T09:21:38;16.20;99.90
21612;DHT22;47005;52.292;13.452;2022-10-16T09:24:13;16.30;99.90
21612;DHT22;47005;52.292;13.452;2022-10-16T09:26:39;16.30;99.90
21612;DHT22;47005;52.292;13.452;2022-10-16T09:29:05;16.30;99.90
21612;DHT22;47005;52.292;13.452;2022-10-16T09:31:30;16.30;99.90
21612;DHT22;47005;52.292;13.452;2022-10-16T09:34:00;16.40;99.90
21612;DHT22;47005;52.292;13.452;2022-10-16T09:36:39;16.40;99.90
21612;DHT22;47005;52.292;13.452;2022-10-16T09:39:08;16.40;99.90
21612;DHT22;47005;52.292;13.452;2022-10-16T09:41:36;16.50;99.90
21612;DHT22;47005;52.292;13.452;2022-10-16T09:44:04;16.50;99.90
21612;DHT22;47005;52.292;13.452;2022-10-16T09:46:37;16.50;99.90
21612;DHT22;47005;52.292;13.452;2022-10-16T09:49:22;16.50;99.90
21612;DHT22;47005;52.292;13.452;2022-10-16T09:51:48;16.50;99.90
21612;DHT22;47005;52.292;13.452;2022-10-16T09:54:19;16.60;99.90
21612;DHT22;47005;52.292;13.452;2022-10-16T09:56:45;16.60;99.90
21612;DHT22;47005;52.292;13.452;2022-10-16T09:59:21;16.60;99.90
21612;DHT22;47005;52.292;13.452;2022-10-16T10:01:51;16.60;99.90
21612;DHT22;47005;52.292;13.452;2022-10-16T10:04:18;16.60;99.90
21612;DHT22;47005;52.292;13.452;2022-10-16T10:06:49;16.70;99.90
21612;DHT22;47005;52.292;13.452;2022-10-16T10:11:50;16.60;99.90
21612;DHT22;47005;52.292;13.452;2022-10-16T10:16:48;16.70;99.90
21612;DHT22;47005;52.292;13.452;2022-10-16T10:19:17;16.70;99.90
21612;DHT22;47005;52.292;13.452;2022-10-16T10:21:43;16.70;99.90
21612;DHT22;47005;52.292;13.452;2022-10-16T10:24:13;16.80;99.90
21612;DHT22;47005;52.292;13.452;2022-10-16T10:26:44;16.80;99.90
21612;DHT22;47005;52.292;13.452;2022-10-16T10:29:17;16.80;99.90
21612;DHT22;47005;52.292;13.452;2022-10-16T10:42:57;17.00;99.90
21612;DHT22;47005;52.292;13.452;2022-10-16T10:45:35;17.00;99.90
21612;DHT22;47005;52.292;13.452;2022-10-16T10:51:01;17.10;99.90
21612;DHT22;47005;52.292;13.452;2022-10-16T10:56:12;17.10;99.90
21612;DHT22;47005;52.292;13.452;2022-10-16T10:58:46;17.10;99.90
21612;DHT22;47005;52.292;13.452;2022-10-16T11:01:22;17.20;99.90
21612;DHT22;47005;52.292;13.452;2022-10-16T11:06:40;17.20;99.90
21612;DHT22;47005;52.292;13.452;2022-10-16T11:09:22;17.20;99.90
21612;DHT22;47005;52.292;13.452;2022-10-16T11:12:14;17.20;99.90
21612;DHT22;47005;52.292;13.452;2022-10-16T11:17:16;17.30;99.90
21612;DHT22;47005;52.292;13.452;2022-10-16T11:19:54;17.30;99.90
21612;DHT22;47005;52.292;13.452;2022-10-16T11:22:39;17.30;99.90
21612;DHT22;47005;52.292;13.452;2022-10-16T11:25:13;17.30;99.90
21612;DHT22;47005;52.292;13.452;2022-10-16T11:30:30;17.40;99.90
21612;DHT22;47005;52.292;13.452;2022-10-16T11:35:43;17.40;99.90
21612;DHT22;47005;52.292;13.452;2022-10-16T11:38:15;17.40;99.90
21612;DHT22;47005;52.292;13.452;2022-10-16T11:40:45;17.50;99.90
21612;DHT22;47005;52.292;13.452;2022-10-16T11:43:19;17.50;99.90
21612;DHT22;47005;52.292;13.452;2022-10-16T11:45:52;17.50;99.90
21612;DHT22;47005;52.292;13.452;2022-10-16T11:48:43;17.60;99.90
21612;DHT22;47005;52.292;13.452;2022-10-16T11:53:55;17.70;99.90
21612;DHT22;47005;52.292;13.452;2022-10-16T11:56:24;17.70;99.90
21612;DHT22;47005;52.292;13.452;2022-10-16T11:59:32;17.70;99.90
21612;DHT22;47005;52.292;13.452;2022-10-16T12:02:28;17.80;99.90
21612;DHT22;47005;52.292;13.452;2022-10-16T12:08:12;17.80;99.90
21612;DHT22;47005;52.292;13.452;2022-10-16T12:10:39;17.90;99.90
21612;DHT22;47005;52.292;13.452;2022-10-16T12:18:30;18.00;99.90
21612;DHT22;47005;52.292;13.452;2022-10-16T12:20:59;18.10;99.90
21612;DHT22;47005;52.292;13.452;2022-10-16T12:23:31;18.10;99.90
21612;DHT22;47005;52.292;13.452;2022-10-16T12:26:01;18.20;99.90
21612;DHT22;47005;52.292;13.452;2022-10-16T12:28:32;18.20;99.90
21612;DHT22;47005;52.292;13.452;2022-10-16T12:31:07;18.20;99.90
21612;DHT22;47005;52.292;13.452;2022-10-16T12:33:40;18.20;99.90
21612;DHT22;47005;52.292;13.452;2022-10-16T12:36:13;18.30;99.90
21612;DHT22;47005;52.292;13.452;2022-10-16T12:38:50;18.30;99.90
21612;DHT22;47005;52.292;13.452;2022-10-16T12:41:31;18.30;99.90
21612;DHT22;47005;52.292;13.452;2022-10-16T12:43:57;18.30;99.90
21612;DHT22;47005;52.292;13.452;2022-10-16T12:46:24;18.30;99.90
21612;DHT22;47005;52.292;13.452;2022-10-16T12:51:40;18.40;99.90
21612;DHT22;47005;52.292;13.452;2022-10-16T12:57:10;18.40;99.90
21612;DHT22;47005;52.292;13.452;2022-10-16T13:07:56;18.40;99.90
21612;DHT22;47005;52.292;13.452;2022-10-16T13:13:23;18.40;99.90
21612;DHT22;47005;52.292;13.452;2022-10-16T13:21:35;18.50;99.90
21612;DHT22;47005;52.292;13.452;2022-10-16T13:24:31;18.50;99.90
21612;DHT22;47005;52.292;13.452;2022-10-16T13:27:13;18.50;99.90
21612;DHT22;47005;52.292;13.452;2022-10-16T13:29:43;18.50;99.90
21612;DHT22;47005;52.292;13.452;2022-10-16T13:32:11;18.60;99.90
21612;DHT22;47005;52.292;13.452;2022-10-16T13:34:47;18.60;99.90
21612;DHT22;47005;52.292;13.452;2022-10-16T13:37:18;18.60;99.90
21612;DHT22;47005;52.292;13.452;2022-10-16T13:39:44;18.60;99.90
21612;DHT22;47005;52.292;13.452;2022-10-16T13:42:14;18.70;99.90
21612;DHT22;47005;52.292;13.452;2022-10-16T13:44:43;18.70;99.90
21612;DHT22;47005;52.292;13.452;2022-10-16T13:47:29;18.70;99.90
21612;DHT22;47005;52.292;13.452;2022-10-16T13:50:09;18.80;99.90
21612;DHT22;47005;52.292;13.452;2022-10-16T13:52:36;18.90;99.90
21612;DHT22;47005;52.292;13.452;2022-10-16T13:55:04;19.00;99.90
21612;DHT22;47005;52.292;13.452;2022-10-16T13:57:30;19.00;99.90
21612;DHT22;47005;52.292;13.452;2022-10-16T13:59:55;19.10;99.90
21612;DHT22;47005;52.292;13.452;2022-10-16T14:04:49;19.10;99.90
21612;DHT22;47005;52.292;13.452;2022-10-16T14:07:23;19.10;99.90
21612;DHT22;47005;52.292;13.452;2022-10-16T14:09:51;19.10;99.90
21612;DHT22;47005;52.292;13.452;2022-10-16T14:12:17;19.20;99.90
21612;DHT22;47005;52.292;13.452;2022-10-16T14:14:51;19.10;99.90
21612;DHT22;47005;52.292;13.452;2022-10-16T14:17:35;19.10;99.90
21612;DHT22;47005;52.292;13.452;2022-10-16T14:20:04;19.10;99.90
21612;DHT22;47005;52.292;13.452;2022-10-16T14:22:57;19.00;99.90
21612;DHT22;47005;52.292;13.452;2022-10-16T14:25:23;19.00;99.90
21612;DHT22;47005;52.292;13.452;2022-10-16T14:27:59;19.00;99.90
21612;DHT22;47005;52.292;13.452;2022-10-16T14:30:26;18.90;99.90
21612;DHT22;47005;52.292;13.452;2022-10-16T14:32:57;18.90;99.90
21612;DHT22;47005;52.292;13.452;2022-10-16T14:35:27;18.90;99.90
21612;DHT22;47005;52.292;13.452;2022-10-16T14:37:55;18.90;99.90
21612;DHT22;47005;52.292;13.452;2022-10-16T14:40:24;18.90;99.90
21612;DHT22;47005;52.292;13.452;2022-10-16T14:42:51;18.90;99.90
21612;DHT22;47005;52.292;13.452;2022-10-16T14:45:22;18.90;99.90
21612;DHT22;47005;52.292;13.452;2022-10-16T14:47:52;18.90;99.90
21612;DHT22;47005;52.292;13.452;2022-10-16T14:50:18;18.80;99.90
21612;DHT22;47005;52.292;13.452;2022-10-16T14:52:43;18.80;99.90
21612;DHT22;47005;52.292;13.452;2022-10-16T14:55:10;18.80;99.90
21612;DHT22;47005;52.292;13.452;2022-10-16T14:57:37;18.80;99.90
21612;DHT22;47005;52.292;13.452;2022-10-16T15:00:15;18.80;99.90
21612;DHT22;47005;52.292;13.452;2022-10-16T15:02:42;18.80;99.90
21612;DHT22;47005;52.292;13.452;2022-10-16T15:05:22;18.80;99.90
21612;DHT22;47005;52.292;13.452;2022-10-16T15:07:49;18.70;99.90
21612;DHT22;47005;52.292;13.452;2022-10-16T15:10:19;18.70;99.90
21612;DHT22;47005;52.292;13.452;2022-10-16T15:12:45;18.70;99.90
21612;DHT22;47005;52.292;13.452;2022-10-16T15:15:25;18.60;99.90
21612;DHT22;47005;52.292;13.452;2022-10-16T15:17:53;18.60;99.90
21612;DHT22;47005;52.292;13.452;2022-10-16T15:20:21;18.60;99.90
21612;DHT22;47005;52.292;13.452;2022-10-16T15:22:47;18.60;99.90
21612;DHT22;47005;52.292;13.452;2022-10-16T15:25:39;18.60;99.90
21612;DHT22;47005;52.292;13.452;2022-10-16T15:28:08;18.50;99.90
21612;DHT22;47005;52.292;13.452;2022-10-16T15:30:35;18.50;99.90
21612;DHT22;47005;52.292;13.452;2022-10-16T15:33:02;18.40;99.90
21612;DHT22;47005;52.292;13.452;2022-10-16T15:35:27;18.40;99.90
21612;DHT22;47005;52.292;13.452;2022-10-16T15:37:53;18.40;99.90
21612;DHT22;47005;52.292;13.452;2022-10-16T15:40:20;18.40;99.90
21612;DHT22;47005;52.292;13.452;2022-10-16T15:42:46;18.30;99.90
21612;DHT22;47005;52.292;13.452;2022-10-16T15:45:12;18.30;99.90
21612;DHT22;47005;52.292;13.452;2022-10-16T15:47:41;18.20;99.90
21612;DHT22;47005;52.292;13.452;2022-10-16T15:50:07;18.20;99.90
21612;DHT22;47005;52.292;13.452;2022-10-16T15:52:33;18.20;99.90
21612;DHT22;47005;52.292;13.452;2022-10-16T15:54:59;18.10;99.90
21612;DHT22;47005;52.292;13.452;2022-10-16T15:57:24;18.10;99.90
21612;DHT22;47005;52.292;13.452;2022-10-16T15:59:50;18.00;99.90
21612;DHT22;47005;52.292;13.452;2022-10-16T16:02:16;18.00;99.90
21612;DHT22;47005;52.292;13.452;2022-10-16T16:04:42;18.00;99.90
21612;DHT22;47005;52.292;13.452;2022-10-16T16:07:07;17.90;99.90
21612;DHT22;47005;52.292;13.452;2022-10-16T16:09:33;17.90;99.90
21612;DHT22;47005;52.292;13.452;2022-10-16T16:11:59;17.80;99.90
21612;DHT22;47005;52.292;13.452;2022-10-16T16:14:26;17.80;99.90
21612;DHT22;47005;52.292;13.452;2022-10-16T16:16:54;17.70;99.90
21612;DHT22;47005;52.292;13.452;2022-10-16T16:19:20;17.70;99.90
21612;DHT22;47005;52.292;13.452;2022-10-16T16:21:49;17.70;99.90
21612;DHT22;47005;52.292;13.452;2022-10-16T16:24:15;17.60;99.90
21612;DHT22;47005;52.292;13.452;2022-10-16T16:26:41;17.60;99.90
21612;DHT22;47005;52.292;13.452;2022-10-16T16:29:11;17.50;99.90
21612;DHT22;47005;52.292;13.452;2022-10-16T16:31:38;17.50;99.90
21612;DHT22;47005;52.292;13.452;2022-10-16T16:34:04;17.50;99.90
21612;DHT22;47005;52.292;13.452;2022-10-16T16:36:30;17.40;99.90
21612;DHT22;47005;52.292;13.452;2022-10-16T16:38:56;17.40;99.90
21612;DHT22;47005;52.292;13.452;2022-10-16T16:41:24;17.40;99.90
21612;DHT22;47005;52.292;13.452;2022-10-16T16:43:51;17.30;99.90
21612;DHT22;47005;52.292;13.452;2022-10-16T16:46:18;17.30;99.90
21612;DHT22;47005;52.292;13.452;2022-10-16T16:48:45;17.30;99.90
21612;DHT22;47005;52.292;13.452;2022-10-16T16:51:13;17.20;99.90
21612;DHT22;47005;52.292;13.452;2022-10-16T16:53:44;17.20;99.90
21612;DHT22;47005;52.292;13.452;2022-10-16T16:56:09;17.20;99.90
21612;DHT22;47005;52.292;13.452;2022-10-16T16:58:35;17.10;99.90
21612;DHT22;47005;52.292;13.452;2022-10-16T17:01:01;17.10;99.90
21612;DHT22;47005;52.292;13.452;2022-10-16T17:03:31;17.10;99.90
21612;DHT22;47005;52.292;13.452;2022-10-16T17:06:01;17.00;99.90